Time;durP1;ratioP1;P1;durP2;ratioP2;P2;SDS_P1;SDS_P2;PMS_P1;PMS_P2;Temp;Humidity;BMP_temperature;BMP_pressure;BME280_temperature;BME280_humidity;BME280_pressure;Samples;Min_cycle;Max_cycle;Signal;HPM_P1;HPM_P2
2023/07/12 00:01:28;;;;;;;3.80;3.20;;;31.40;54.80;;;;;;5040044;28;20446;-90
2023/07/12 00:03:54;;;;;;;5.00;3.33;;;31.40;54.80;;;;;;5040030;28;20509;-90
2023/07/12 00:06:28;;;;;;;2.83;2.63;;;31.40;54.80;;;;;;5023605;28;20451;-90
2023/07/12 00:08:54;;;;;;;3.23;2.93;;;31.40;55.00;;;;;;5056305;28;20446;-90
2023/07/12 00:11:25;;;;;;;3.53;3.23;;;31.40;54.90;;;;;;5039766;28;20425;-89
2023/07/12 00:13:54;;;;;;;3.30;3.10;;;31.30;54.80;;;;;;5040017;28;20399;-90
2023/07/12 00:16:33;;;;;;;2.80;2.60;;;31.30;54.90;;;;;;5023673;28;20738;-90
2023/07/12 00:18:59;;;;;;;3.93;3.10;;;31.30;54.90;;;;;;5039508;28;20956;-89
2023/07/12 00:21:30;;;;;;;3.63;3.00;;;31.30;54.90;;;;;;5039622;28;20525;-90
2023/07/12 00:24:00;;;;;;;3.63;3.00;;;31.30;55.50;;;;;;5056217;28;20506;-90
2023/07/12 00:26:29;;;;;;;2.80;2.60;;;31.30;54.90;;;;;;5039627;28;20908;-89
2023/07/12 00:29:00;;;;;;;2.67;2.47;;;31.30;55.00;;;;;;5039596;28;20458;-89
2023/07/12 00:31:26;;;;;;;2.63;2.43;;;31.30;55.00;;;;;;5039238;28;20486;-90
2023/07/12 00:33:53;;;;;;;3.40;3.10;;;31.20;55.00;;;;;;5023161;28;20458;-90
2023/07/12 00:36:24;;;;;;;3.60;3.07;;;31.20;55.00;;;;;;5023104;28;20633;-90
2023/07/12 00:38:52;;;;;;;3.63;2.93;;;31.20;55.00;;;;;;5039415;28;21034;-90
2023/07/12 00:41:46;;;;;;;2.73;2.50;;;31.20;55.00;;;;;;5039476;28;20431;-90
2023/07/12 00:44:25;;;;;;;5.07;3.10;;;31.20;55.10;;;;;;5019537;28;20435;-90
2023/07/12 00:46:57;;;;;;;3.20;2.90;;;31.10;55.10;;;;;;5019391;28;20477;-91
2023/07/12 00:49:25;;;;;;;3.37;3.07;;;31.10;55.10;;;;;;5035952;28;20478;-90
2023/07/12 00:52:17;;;;;;;3.47;3.20;;;31.10;55.10;;;;;;5035932;28;20403;-90
2023/07/12 00:54:59;;;;;;;3.23;2.93;;;31.10;55.10;;;;;;5019767;28;20430;-90
2023/07/12 00:57:27;;;;;;;3.10;2.50;;;31.00;55.00;;;;;;5036149;28;20934;-90
2023/07/12 00:59:58;;;;;;;3.47;3.17;;;31.10;55.10;;;;;;5035454;28;20822;-90
2023/07/12 01:02:26;;;;;;;3.40;3.20;;;31.00;55.10;;;;;;5035757;28;20534;-90
2023/07/12 01:04:57;;;;;;;2.80;2.60;;;31.00;55.10;;;;;;5018960;28;20502;-89
2023/07/12 01:07:25;;;;;;;3.10;2.80;;;31.00;55.10;;;;;;5002403;28;20495;-88
2023/07/12 01:09:53;;;;;;;2.77;2.60;;;31.00;55.10;;;;;;5019137;28;20431;-87
2023/07/12 01:12:19;;;;;;;2.40;2.30;;;31.00;55.20;;;;;;5017924;28;20439;-88
2023/07/12 01:14:45;;;;;;;3.30;3.00;;;30.90;55.20;;;;;;5034678;28;20438;-88
2023/07/12 01:17:11;;;;;;;4.37;2.73;;;30.90;55.30;;;;;;5034930;28;20510;-88
2023/07/12 01:19:39;;;;;;;3.00;2.80;;;30.90;55.40;;;;;;5034864;28;20863;-88
2023/07/12 01:22:08;;;;;;;3.00;2.80;;;30.90;55.40;;;;;;5034850;28;20427;-88
2023/07/12 01:24:36;;;;;;;2.93;2.60;;;30.90;55.60;;;;;;5018385;28;20423;-88
2023/07/12 01:27:16;;;;;;;2.60;2.40;;;30.90;55.70;;;;;;5034317;28;20530;-88
2023/07/12 01:29:42;;;;;;;3.67;3.37;;;30.80;55.70;;;;;;5034732;28;20435;-88
2023/07/12 01:32:10;;;;;;;2.87;2.63;;;30.80;55.80;;;;;;5051377;28;20429;-88
2023/07/12 01:34:36;;;;;;;3.33;2.60;;;30.80;55.90;;;;;;5051220;28;20431;-89
2023/07/12 01:37:04;;;;;;;2.73;2.50;;;30.80;56.00;;;;;;5034531;28;20962;-89
2023/07/12 01:39:32;;;;;;;3.40;2.93;;;30.80;56.20;;;;;;5034656;28;20559;-89
2023/07/12 01:41:59;;;;;;;3.10;2.87;;;30.70;56.10;;;;;;5034358;28;20912;-89
2023/07/12 01:44:24;;;;;;;3.03;2.73;;;30.80;56.20;;;;;;5051040;28;20517;-88
2023/07/12 01:46:53;;;;;;;3.10;2.90;;;30.70;56.30;;;;;;5018117;28;20826;-88
2023/07/12 01:49:44;;;;;;;3.00;2.80;;;30.70;56.30;;;;;;5018104;28;20431;-88
2023/07/12 01:52:16;;;;;;;2.63;2.40;;;30.70;56.50;;;;;;5045069;28;20478;-81
2023/07/12 01:54:42;;;;;;;3.03;2.80;;;30.70;56.50;;;;;;5032870;28;20486;-81
2023/07/12 01:57:11;;;;;;;2.70;2.50;;;30.70;56.50;;;;;;5049057;28;20419;-81
2023/07/12 01:59:37;;;;;;;2.90;2.70;;;30.70;56.60;;;;;;5035080;28;20767;-81
2023/07/12 02:02:07;;;;;;;2.57;2.40;;;30.60;56.60;;;;;;5052726;28;20418;-81
2023/07/12 02:04:33;;;;;;;2.53;2.43;;;30.60;56.60;;;;;;5052425;28;20430;-81
2023/07/12 02:07:06;;;;;;;4.27;2.50;;;30.60;56.80;;;;;;5052715;28;20399;-81
2023/07/12 02:09:40;;;;;;;3.23;2.40;;;30.60;56.80;;;;;;5036076;28;20430;-81
2023/07/12 02:12:10;;;;;;;2.70;2.50;;;30.50;56.70;;;;;;5036347;28;20905;-81
2023/07/12 02:14:39;;;;;;;3.07;2.87;;;30.50;56.90;;;;;;5048967;28;20432;-81
2023/07/12 02:17:05;;;;;;;2.53;2.33;;;30.50;56.80;;;;;;5032764;28;20474;-81
2023/07/12 02:19:33;;;;;;;2.90;2.70;;;30.50;56.90;;;;;;5033981;28;20426;-80
2023/07/12 02:21:59;;;;;;;3.67;2.73;;;30.50;56.90;;;;;;5052262;28;20443;-81
2023/07/12 02:24:27;;;;;;;2.93;2.73;;;30.40;57.10;;;;;;5035997;28;20176;-81
2023/07/12 02:26:55;;;;;;;3.00;2.60;;;30.50;57.20;;;;;;5039675;28;20549;-80
2023/07/12 02:29:21;;;;;;;2.80;2.60;;;30.40;57.30;;;;;;5056727;28;20439;-80
2023/07/12 02:31:54;;;;;;;3.17;2.87;;;30.40;57.50;;;;;;5055805;28;20437;-80
2023/07/12 02:34:20;;;;;;;2.73;2.53;;;30.40;57.80;;;;;;5056275;28;20417;-79
2023/07/12 02:36:46;;;;;;;3.30;2.93;;;30.40;58.00;;;;;;5056838;28;20414;-84
2023/07/12 02:39:14;;;;;;;2.77;2.40;;;30.40;58.10;;;;;;5057719;28;20176;-86
2023/07/12 02:41:40;;;;;;;5.23;3.27;;;30.30;58.00;;;;;;5057630;28;20462;-86
2023/07/12 02:44:06;;;;;;;4.30;3.43;;;30.30;58.00;;;;;;5040746;28;20462;-85
2023/07/12 02:46:32;;;;;;;4.30;3.20;;;30.30;58.20;;;;;;5057198;28;20177;-86
2023/07/12 02:48:58;;;;;;;5.53;3.60;;;30.20;58.50;;;;;;5057211;28;20271;-86
2023/07/12 02:51:26;;;;;;;4.07;3.40;;;30.20;58.60;;;;;;5025090;28;20508;-85
2023/07/12 02:53:52;;;;;;;5.10;3.47;;;30.20;58.70;;;;;;5021051;28;20550;-86
2023/07/12 02:56:18;;;;;;;3.80;3.37;;;30.20;58.70;;;;;;5004606;28;20181;-86
2023/07/12 02:58:44;;;;;;;3.30;2.90;;;30.20;58.60;;;;;;5004636;28;20185;-86
2023/07/12 03:01:11;;;;;;;3.87;3.57;;;30.10;58.90;;;;;;5037079;28;20223;-87
2023/07/12 03:03:37;;;;;;;3.50;3.20;;;30.10;59.10;;;;;;5020825;28;20580;-86
2023/07/12 03:06:08;;;;;;;3.93;3.43;;;30.00;59.00;;;;;;5004656;28;20451;-85
2023/07/12 03:08:34;;;;;;;8.13;3.10;;;30.00;58.80;;;;;;5036930;28;20524;-86
2023/07/12 03:11:03;;;;;;;3.40;3.10;;;30.00;59.00;;;;;;5020627;28;20442;-85
2023/07/12 03:13:29;;;;;;;3.80;3.10;;;30.00;58.90;;;;;;5037120;28;20768;-86
2023/07/12 03:15:55;;;;;;;3.70;3.27;;;29.90;58.70;;;;;;5004008;28;20518;-86
2023/07/12 03:18:21;;;;;;;3.63;3.17;;;29.90;58.70;;;;;;5004013;28;20891;-85
2023/07/12 03:20:49;;;;;;;4.40;3.10;;;29.90;58.80;;;;;;5021329;28;20507;-86
2023/07/12 03:23:16;;;;;;;3.37;3.10;;;29.90;58.80;;;;;;5039989;28;20513;-86
2023/07/12 03:25:46;;;;;;;3.70;3.40;;;29.80;58.80;;;;;;5040167;28;20192;-86
2023/07/12 03:28:14;;;;;;;4.37;3.60;;;29.80;58.90;;;;;;5039492;28;20569;-85
2023/07/12 03:30:40;;;;;;;3.57;3.20;;;29.80;58.80;;;;;;5056363;28;20450;-86
2023/07/12 03:33:05;;;;;;;4.10;3.00;;;29.80;58.80;;;;;;5039698;28;20427;-85
2023/07/12 03:35:36;;;;;;;3.70;3.20;;;29.80;58.70;;;;;;5055961;28;20184;-85
2023/07/12 03:38:02;;;;;;;4.13;3.70;;;29.70;58.90;;;;;;5039908;28;20439;-86
2023/07/12 03:40:28;;;;;;;3.43;3.13;;;29.70;58.70;;;;;;5039267;28;20418;-85
2023/07/12 03:42:56;;;;;;;3.47;3.10;;;29.70;58.90;;;;;;5038147;28;20265;-87
2023/07/12 03:45:23;;;;;;;3.10;2.90;;;29.70;59.00;;;;;;5055016;28;20259;-86
2023/07/12 03:47:49;;;;;;;3.00;2.63;;;29.70;58.90;;;;;;5055078;28;20473;-87
2023/07/12 03:50:14;;;;;;;2.93;2.73;;;29.60;59.00;;;;;;5038765;28;20419;-87
2023/07/12 03:52:40;;;;;;;3.67;3.33;;;29.60;58.90;;;;;;5039171;28;20202;-88
2023/07/12 03:55:06;;;;;;;5.03;3.27;;;29.60;59.00;;;;;;5022306;28;20880;-87
2023/07/12 03:57:33;;;;;;;3.23;2.70;;;29.60;58.90;;;;;;5037880;28;20188;-88
2023/07/12 04:00:03;;;;;;;3.70;3.40;;;29.60;59.00;;;;;;5038183;28;20811;-87
2023/07/12 04:02:41;;;;;;;3.57;3.27;;;29.50;59.00;;;;;;5040041;28;20519;-86
2023/07/12 04:05:07;;;;;;;3.90;3.47;;;29.50;59.00;;;;;;5021089;28;20666;-86
2023/07/12 04:07:35;;;;;;;3.93;3.20;;;29.50;59.00;;;;;;5065545;28;20520;-87
2023/07/12 04:10:03;;;;;;;5.33;2.90;;;29.50;58.90;;;;;;5036806;28;20462;-87
2023/07/12 04:12:32;;;;;;;7.37;3.10;;;29.50;59.00;;;;;;5050779;28;20420;-87
2023/07/12 04:14:58;;;;;;;4.57;2.80;;;29.40;59.10;;;;;;5039938;28;20431;-87
2023/07/12 04:17:24;;;;;;;3.20;2.97;;;29.40;59.00;;;;;;5028931;28;20504;-87
2023/07/12 04:19:50;;;;;;;3.70;3.40;;;29.40;59.00;;;;;;5052345;28;20454;-87
2023/07/12 04:22:16;;;;;;;3.30;3.00;;;29.40;59.10;;;;;;5041612;28;20184;-86
2023/07/12 04:24:42;;;;;;;4.60;2.80;;;29.40;59.10;;;;;;5020163;28;20191;-88
2023/07/12 04:27:10;;;;;;;3.83;3.03;;;29.30;59.10;;;;;;5037889;28;20555;-87
2023/07/12 04:29:38;;;;;;;3.43;3.13;;;29.30;59.10;;;;;;5037556;28;20643;-87
2023/07/12 04:32:07;;;;;;;4.30;2.80;;;29.30;59.20;;;;;;5055042;28;20450;-87
2023/07/12 04:34:33;;;;;;;3.27;2.97;;;29.30;59.30;;;;;;5054027;28;20184;-87
2023/07/12 04:37:02;;;;;;;3.50;3.30;;;29.30;59.30;;;;;;5021434;28;20422;-87
2023/07/12 04:39:28;;;;;;;3.27;2.97;;;29.30;59.30;;;;;;5054386;28;20433;-87
2023/07/12 04:41:53;;;;;;;4.13;3.20;;;29.20;59.20;;;;;;5054064;28;20409;-88
2023/07/12 04:44:19;;;;;;;4.03;2.83;;;29.20;59.30;;;;;;5021343;28;20773;-88
2023/07/12 04:46:45;;;;;;;3.03;2.80;;;29.20;59.30;;;;;;5053967;28;20160;-87
2023/07/12 04:49:14;;;;;;;4.60;3.27;;;29.20;59.40;;;;;;5054506;28;20462;-87
2023/07/12 04:51:39;;;;;;;3.10;2.50;;;29.20;59.40;;;;;;5047721;28;20215;-87
2023/07/12 04:54:08;;;;;;;3.40;3.10;;;29.10;59.90;;;;;;5040045;28;20447;-88
2023/07/12 04:56:33;;;;;;;2.77;2.33;;;29.10;59.40;;;;;;5054130;28;20429;-87
2023/07/12 04:59:02;;;;;;;2.60;2.40;;;29.10;59.40;;;;;;5037592;28;20628;-88
2023/07/12 05:01:33;;;;;;;3.63;2.77;;;29.10;59.50;;;;;;5037771;28;20423;-87
2023/07/12 05:03:59;;;;;;;3.17;2.87;;;29.00;59.50;;;;;;5053899;28;20443;-89
2023/07/12 05:06:25;;;;;;;2.73;2.53;;;29.00;59.40;;;;;;5037217;28;20766;-89
2023/07/12 05:08:51;;;;;;;3.33;3.00;;;29.00;59.50;;;;;;5054057;28;20455;-88
2023/07/12 05:11:17;;;;;;;3.17;2.70;;;29.00;59.40;;;;;;5053561;28;20472;-87
2023/07/12 05:13:43;;;;;;;3.93;3.63;;;29.00;59.50;;;;;;5053543;28;20423;-88
2023/07/12 05:16:13;;;;;;;3.37;3.07;;;28.90;59.50;;;;;;5020711;28;20430;-89
2023/07/12 05:18:39;;;;;;;2.63;2.43;;;28.90;59.70;;;;;;5037478;28;20442;-88
2023/07/12 05:21:08;;;;;;;3.27;3.00;;;28.90;59.60;;;;;;5037784;28;20430;-90
2023/07/12 05:23:36;;;;;;;3.10;2.80;;;28.90;59.70;;;;;;5037178;28;20397;-90
2023/07/12 05:26:02;;;;;;;3.30;2.70;;;28.90;59.70;;;;;;5020747;28;20744;-89
2023/07/12 05:28:28;;;;;;;3.47;2.67;;;28.80;59.50;;;;;;5026073;28;20471;-91
2023/07/12 05:30:54;;;;;;;2.93;2.73;;;28.80;59.50;;;;;;5034110;28;20430;-90
2023/07/12 05:33:20;;;;;;;2.57;2.40;;;28.80;59.50;;;;;;5037299;28;20449;-89
2023/07/12 05:35:47;;;;;;;2.77;2.57;;;28.80;59.70;;;;;;5037306;28;20210;-90
2023/07/12 05:38:15;;;;;;;3.23;3.03;;;28.70;59.70;;;;;;5020493;28;20423;-89
2023/07/12 05:40:41;;;;;;;3.10;2.90;;;28.70;59.60;;;;;;5037296;28;20418;-88
2023/07/12 05:43:06;;;;;;;3.33;3.03;;;28.70;59.70;;;;;;5053276;28;20446;-89
2023/07/12 05:45:32;;;;;;;4.27;3.37;;;28.70;59.50;;;;;;5053094;28;20479;-86
2023/07/12 05:47:58;;;;;;;2.83;2.63;;;28.60;59.60;;;;;;5036250;28;20574;-85
2023/07/12 05:50:39;;;;;;;3.10;2.77;;;28.60;59.70;;;;;;5036386;28;20176;-84
2023/07/12 05:53:05;;;;;;;3.50;3.20;;;28.60;59.80;;;;;;5049750;28;20531;-85
2023/07/12 05:55:31;;;;;;;4.20;3.20;;;28.60;60.00;;;;;;5033091;28;20482;-84
2023/07/12 05:57:57;;;;;;;2.77;2.57;;;28.50;59.80;;;;;;5016555;28;20803;-85
2023/07/12 06:00:23;;;;;;;2.80;2.60;;;28.50;59.90;;;;;;5016325;28;20211;-84
2023/07/12 06:02:49;;;;;;;3.17;2.87;;;28.50;60.60;;;;;;5032477;28;20415;-84
2023/07/12 06:05:16;;;;;;;3.60;2.90;;;28.50;59.80;;;;;;5034503;28;20180;-83
2023/07/12 06:07:45;;;;;;;2.70;2.50;;;28.40;59.70;;;;;;5045941;28;20463;-84
2023/07/12 06:10:11;;;;;;;3.17;2.97;;;28.40;59.80;;;;;;5016816;28;20964;-85
2023/07/12 06:12:38;;;;;;;3.60;3.40;;;28.40;59.90;;;;;;5016559;28;20492;-85
2023/07/12 06:15:05;;;;;;;2.90;2.70;;;28.30;59.80;;;;;;5032959;28;20435;-85
2023/07/12 06:17:31;;;;;;;2.73;2.50;;;28.30;59.80;;;;;;5016701;28;20440;-85
2023/07/12 06:19:57;;;;;;;2.57;2.40;;;28.30;59.70;;;;;;5033293;28;20495;-84
2023/07/12 06:22:23;;;;;;;3.00;2.80;;;28.30;59.90;;;;;;5049310;28;20589;-84
2023/07/12 06:24:49;;;;;;;2.70;2.53;;;28.30;60.10;;;;;;5016772;28;20451;-84
2023/07/12 06:27:17;;;;;;;2.77;2.57;;;28.20;60.00;;;;;;5016332;28;20475;-85
2023/07/12 06:29:45;;;;;;;2.70;2.50;;;28.20;60.10;;;;;;5016832;28;20505;-84
2023/07/12 06:32:12;;;;;;;3.53;2.70;;;28.20;60.50;;;;;;5032927;28;20416;-85
2023/07/12 06:34:38;;;;;;;2.90;2.70;;;28.20;60.30;;;;;;5032807;28;20471;-84
2023/07/12 06:37:04;;;;;;;3.50;2.80;;;28.20;60.30;;;;;;5015867;28;20896;-84
2023/07/12 06:39:30;;;;;;;3.07;2.30;;;28.20;60.50;;;;;;5032198;28;20439;-84
2023/07/12 06:41:56;;;;;;;3.13;2.60;;;28.20;60.40;;;;;;5032351;28;20811;-84
2023/07/12 06:44:30;;;;;;;3.03;2.60;;;28.10;60.40;;;;;;5032221;28;20481;-83
2023/07/12 06:46:56;;;;;;;3.23;2.90;;;28.10;60.30;;;;;;5015653;28;20444;-83
2023/07/12 06:49:22;;;;;;;3.07;2.80;;;28.10;60.30;;;;;;5015420;28;20530;-83
2023/07/12 06:51:47;;;;;;;2.90;2.70;;;28.10;60.20;;;;;;5048498;28;20169;-82
2023/07/12 06:54:15;;;;;;;2.20;2.00;;;28.10;60.10;;;;;;5031634;28;21059;-83
2023/07/12 06:56:44;;;;;;;3.30;3.00;;;28.00;59.90;;;;;;5031938;28;20181;-82
2023/07/12 06:59:10;;;;;;;5.90;2.77;;;28.00;60.00;;;;;;5031849;28;20514;-82
2023/07/12 07:01:37;;;;;;;3.53;2.90;;;28.00;59.80;;;;;;5031962;28;20523;-84
2023/07/12 07:04:03;;;;;;;3.27;3.07;;;28.00;60.00;;;;;;5015622;28;20784;-81
2023/07/12 07:06:32;;;;;;;3.17;2.87;;;28.00;60.20;;;;;;5031163;28;20427;-81
2023/07/12 07:09:03;;;;;;;3.60;3.23;;;27.90;60.00;;;;;;5031341;28;21020;-82
2023/07/12 07:11:31;;;;;;;3.00;2.80;;;27.90;60.00;;;;;;5016522;28;20470;-81
2023/07/12 07:13:57;;;;;;;4.40;3.03;;;27.90;60.00;;;;;;5035840;28;20538;-82
2023/07/12 07:16:25;;;;;;;3.30;3.00;;;27.90;60.00;;;;;;5018213;28;20522;-83
2023/07/12 07:18:53;;;;;;;3.87;2.83;;;27.90;60.00;;;;;;5063631;28;20580;-81
2023/07/12 07:21:19;;;;;;;4.03;3.10;;;27.90;60.00;;;;;;5074545;28;20440;-80
2023/07/12 07:23:49;;;;;;;5.37;3.37;;;27.90;60.70;;;;;;5060880;28;20533;-81
2023/07/12 07:26:18;;;;;;;3.43;2.93;;;27.80;59.90;;;;;;5056699;28;20387;-81
2023/07/12 07:28:44;;;;;;;3.40;3.10;;;27.80;59.90;;;;;;5057091;28;20519;-81
2023/07/12 07:31:10;;;;;;;3.50;3.20;;;27.80;59.90;;;;;;5055429;28;20521;-81
2023/07/12 07:33:39;;;;;;;4.03;3.83;;;27.70;59.90;;;;;;5037985;28;20439;-81
2023/07/12 07:36:08;;;;;;;3.47;3.17;;;27.80;59.90;;;;;;5054531;28;20433;-79
2023/07/12 07:38:36;;;;;;;3.47;3.17;;;27.70;59.80;;;;;;5055298;28;20469;-83
2023/07/12 07:41:05;;;;;;;3.47;3.03;;;27.70;59.90;;;;;;5054124;28;20414;-79
2023/07/12 07:43:32;;;;;;;3.67;3.37;;;27.70;59.60;;;;;;5055245;28;20442;-80
2023/07/12 07:45:58;;;;;;;3.80;3.33;;;27.70;59.50;;;;;;5053980;28;20517;-81
2023/07/12 07:48:24;;;;;;;3.80;3.23;;;27.60;59.40;;;;;;5020795;28;20581;-80
2023/07/12 07:50:52;;;;;;;3.23;3.03;;;27.60;59.50;;;;;;5054942;28;20580;-80
2023/07/12 07:53:22;;;;;;;4.33;2.97;;;27.60;59.50;;;;;;5055907;28;20180;-82
2023/07/12 07:55:49;;;;;;;4.03;3.67;;;27.60;59.40;;;;;;5054229;28;20495;-82
2023/07/12 07:58:15;;;;;;;3.23;2.93;;;27.60;59.50;;;;;;5054464;28;20418;-82
2023/07/12 08:00:42;;;;;;;4.10;3.50;;;27.60;59.30;;;;;;5055176;28;20427;-82
2023/07/12 08:03:08;;;;;;;3.60;3.03;;;27.60;59.20;;;;;;5054439;28;20439;-82
2023/07/12 08:05:35;;;;;;;5.97;3.63;;;27.60;59.20;;;;;;5054698;28;20501;-82
2023/07/12 08:08:01;;;;;;;2.90;2.70;;;27.60;59.00;;;;;;5053608;28;20604;-80
2023/07/12 08:10:28;;;;;;;3.03;2.70;;;27.60;59.00;;;;;;5053797;28;20439;-82
2023/07/12 08:12:56;;;;;;;3.40;3.20;;;27.50;59.00;;;;;;5052955;28;20437;-81
2023/07/12 08:15:23;;;;;;;5.03;3.30;;;27.50;59.00;;;;;;5053041;28;20454;-81
2023/07/12 08:17:50;;;;;;;3.30;2.90;;;27.50;58.90;;;;;;5053736;28;20478;-80
2023/07/12 08:20:18;;;;;;;4.27;2.80;;;27.50;58.80;;;;;;5055564;28;20425;-80
2023/07/12 08:22:47;;;;;;;4.40;3.57;;;27.50;58.70;;;;;;5054787;28;20453;-82
2023/07/12 08:25:18;;;;;;;3.63;3.33;;;27.50;58.60;;;;;;5054315;28;20413;-81
2023/07/12 08:27:44;;;;;;;3.50;3.27;;;27.50;58.70;;;;;;5069783;28;20496;-81
2023/07/12 08:30:10;;;;;;;3.10;2.87;;;27.50;58.50;;;;;;5053025;28;20800;-80
2023/07/12 08:32:36;;;;;;;3.90;3.70;;;27.50;58.50;;;;;;5053896;28;20480;-80
2023/07/12 08:35:03;;;;;;;4.60;4.00;;;27.50;58.50;;;;;;5053248;28;20431;-81
2023/07/12 08:37:30;;;;;;;3.60;3.30;;;27.50;58.40;;;;;;5053227;28;20458;-82
2023/07/12 08:39:56;;;;;;;3.30;3.10;;;27.50;58.50;;;;;;5036544;28;20565;-82
2023/07/12 08:42:35;;;;;;;3.70;2.83;;;27.50;58.20;;;;;;5053049;28;20615;-84
2023/07/12 08:45:12;;;;;;;3.10;2.90;;;27.50;58.20;;;;;;5057281;28;20498;-81
2023/07/12 08:47:39;;;;;;;3.40;3.20;;;27.50;58.20;;;;;;5075919;28;20464;-81
2023/07/12 08:50:16;;;;;;;3.73;3.13;;;27.50;58.20;;;;;;5050104;28;20400;-81
2023/07/12 08:52:49;;;;;;;3.20;3.00;;;27.50;58.10;;;;;;5049149;28;20530;-81
2023/07/12 08:55:20;;;;;;;4.17;3.90;;;27.50;58.10;;;;;;5016484;28;20908;-81
2023/07/12 08:58:13;;;;;;;3.83;3.33;;;27.50;58.10;;;;;;5032800;28;20443;-82
2023/07/12 09:00:43;;;;;;;3.60;3.20;;;27.50;58.10;;;;;;5049522;28;20434;-81
2023/07/12 09:03:08;;;;;;;3.23;3.03;;;27.50;57.90;;;;;;5032758;28;20428;-82
2023/07/12 09:05:37;;;;;;;3.53;3.10;;;27.50;57.90;;;;;;5032959;28;20501;-82
2023/07/12 09:08:43;;;;;;;3.67;3.20;;;27.50;57.70;;;;;;5016222;28;20424;-83
2023/07/12 09:11:19;;;;;;;3.40;3.20;;;27.50;57.60;;;;;;5032701;28;20273;-82
2023/07/12 09:13:48;;;;;;;3.30;3.10;;;27.50;57.50;;;;;;5023430;28;20436;-81
2023/07/12 09:16:29;;;;;;;4.23;3.17;;;27.50;57.50;;;;;;5073161;28;20426;-82
2023/07/12 09:19:10;;;;;;;5.70;3.60;;;27.50;57.70;;;;;;5058276;28;20577;-81
2023/07/12 09:21:40;;;;;;;3.23;2.93;;;27.40;57.60;;;;;;5053795;28;20419;-81
2023/07/12 09:24:18;;;;;;;3.23;3.03;;;27.40;57.40;;;;;;5052140;28;20418;-81
2023/07/12 09:26:50;;;;;;;3.20;2.90;;;27.40;57.60;;;;;;5053770;28;20437;-81
2023/07/12 09:29:27;;;;;;;2.90;2.70;;;27.40;57.60;;;;;;5019767;28;20407;-81
2023/07/12 09:32:01;;;;;;;3.53;3.23;;;27.40;57.60;;;;;;5052237;28;20446;-83
2023/07/12 09:34:39;;;;;;;3.13;2.83;;;27.40;57.60;;;;;;5051642;28;20403;-81
2023/07/12 09:37:16;;;;;;;3.30;3.00;;;27.40;57.50;;;;;;5052033;28;20465;-82
2023/07/12 09:39:55;;;;;;;3.20;3.00;;;27.50;57.50;;;;;;5053154;28;20431;-80
2023/07/12 09:42:21;;;;;;;3.63;3.30;;;27.50;57.50;;;;;;5035683;28;20492;-82
2023/07/12 09:44:48;;;;;;;3.80;3.50;;;27.40;57.50;;;;;;5035961;28;20521;-82
2023/07/12 09:47:23;;;;;;;6.43;3.20;;;27.50;57.40;;;;;;5053208;28;20839;-81
2023/07/12 09:50:08;;;;;;;3.30;3.10;;;27.50;57.50;;;;;;5032100;28;20527;-82
2023/07/12 09:52:53;;;;;;;4.20;3.90;;;27.50;57.50;;;;;;5031731;28;20411;-81
2023/07/12 09:55:23;;;;;;;3.73;3.10;;;27.50;57.40;;;;;;5048420;28;20418;-81
2023/07/12 09:57:54;;;;;;;3.33;3.13;;;27.50;57.40;;;;;;5054510;28;20461;-81
2023/07/12 10:00:29;;;;;;;4.33;3.60;;;27.50;57.40;;;;;;5074253;28;20524;-87
2023/07/12 10:03:26;;;;;;;4.70;4.00;;;27.50;57.40;;;;;;5061830;28;20505;-87
2023/07/12 10:06:01;;;;;;;3.80;3.50;;;27.50;57.30;;;;;;5037023;28;20518;-87
2023/07/12 10:08:46;;;;;;;3.53;3.23;;;27.50;57.30;;;;;;5052907;28;20464;-85
2023/07/12 10:11:31;;;;;;;3.90;3.60;;;27.60;57.30;;;;;;5054107;28;20460;-87
2023/07/12 10:14:02;;;;;;;3.40;3.20;;;27.60;57.20;;;;;;5053095;28;20466;-87
2023/07/12 10:16:39;;;;;;;4.57;3.73;;;27.60;57.10;;;;;;5020115;28;20462;-86
2023/07/12 10:19:19;;;;;;;3.50;3.20;;;27.60;57.00;;;;;;5068931;28;20453;-87
2023/07/12 10:21:46;;;;;;;3.97;3.00;;;27.60;57.10;;;;;;5040128;28;20472;-88
2023/07/12 10:24:16;;;;;;;3.30;3.07;;;27.60;57.10;;;;;;5040538;28;20434;-88
2023/07/12 10:26:45;;;;;;;3.40;3.10;;;27.60;57.20;;;;;;5056436;28;20433;-87
2023/07/12 10:29:27;;;;;;;3.80;3.33;;;27.60;57.70;;;;;;5056275;28;20516;-88
2023/07/12 10:32:00;;;;;;;3.10;2.90;;;27.60;57.10;;;;;;5040425;28;20445;-87
2023/07/12 10:34:44;;;;;;;4.50;3.17;;;27.60;57.00;;;;;;5072709;28;20889;-86
2023/07/12 10:37:32;;;;;;;3.20;2.97;;;27.70;57.00;;;;;;5039451;28;20417;-86
2023/07/12 10:40:01;;;;;;;3.60;3.30;;;27.70;57.10;;;;;;5040183;28;20599;-87
2023/07/12 10:42:44;;;;;;;4.33;3.40;;;27.70;57.00;;;;;;5072533;28;20434;-86
2023/07/12 10:45:26;;;;;;;3.97;3.10;;;27.70;56.90;;;;;;5039841;28;20409;-86
2023/07/12 10:47:54;;;;;;;3.83;3.17;;;27.70;56.80;;;;;;5071946;28;20434;-87
2023/07/12 10:50:36;;;;;;;3.83;3.27;;;27.80;56.80;;;;;;5056619;28;20421;-86
2023/07/12 10:53:11;;;;;;;6.20;3.73;;;27.70;56.80;;;;;;5039956;28;20465;-87
2023/07/12 10:55:39;;;;;;;3.30;3.00;;;27.80;56.80;;;;;;5039997;28;20937;-87
2023/07/12 10:58:20;;;;;;;3.33;3.10;;;27.80;56.70;;;;;;5039524;28;20547;-86
2023/07/12 11:00:57;;;;;;;3.93;3.63;;;27.80;56.60;;;;;;5039955;28;20752;-84
2023/07/12 11:03:44;;;;;;;3.03;2.70;;;27.80;56.40;;;;;;5039672;28;20426;-86
2023/07/12 11:07:01;;;;;;;4.63;3.63;;;27.90;56.40;;;;;;5052991;28;20442;-87
2023/07/12 11:09:47;;;;;;;2.83;2.63;;;27.90;57.00;;;;;;5030645;28;20451;-87
2023/07/12 11:12:18;;;;;;;5.10;3.03;;;27.90;56.50;;;;;;5052840;28;20443;-87
2023/07/12 11:14:50;;;;;;;3.70;3.20;;;27.90;56.40;;;;;;5035676;28;21129;-87
2023/07/12 11:17:25;;;;;;;6.60;3.80;;;27.90;56.10;;;;;;5036852;28;20450;-86
2023/07/12 11:20:06;;;;;;;3.07;2.80;;;27.90;56.00;;;;;;5019615;28;20495;-85
2023/07/12 11:23:07;;;;;;;3.37;3.03;;;27.90;56.00;;;;;;5036006;28;20510;-85
2023/07/12 11:26:18;;;;;;;4.70;3.47;;;28.00;56.00;;;;;;4952851;28;20778;-86
2023/07/12 11:28:44;;;;;;;3.50;3.20;;;28.00;55.40;;;;;;5020098;28;20560;-87
2023/07/12 11:31:26;;;;;;;5.57;3.13;;;28.00;55.50;;;;;;5038884;28;20453;-86
2023/07/12 11:34:09;;;;;;;4.00;3.70;;;28.00;55.70;;;;;;5023114;28;20410;-85
2023/07/12 11:36:36;;;;;;;3.30;3.00;;;28.00;55.70;;;;;;5039085;28;20422;-86
2023/07/12 11:39:12;;;;;;;3.50;3.30;;;28.00;55.70;;;;;;5039023;28;20458;-86
2023/07/12 11:41:50;;;;;;;4.10;3.30;;;28.00;55.90;;;;;;5039155;28;20521;-86
2023/07/12 11:44:17;;;;;;;3.57;3.30;;;28.00;55.80;;;;;;5059838;28;20492;-86
2023/07/12 11:46:47;;;;;;;3.67;3.37;;;28.00;55.60;;;;;;5069751;28;20414;-85
2023/07/12 11:49:21;;;;;;;4.53;4.13;;;28.10;56.20;;;;;;5026120;28;20487;-84
2023/07/12 11:51:52;;;;;;;6.00;3.33;;;28.10;55.70;;;;;;5039358;28;20450;-87
2023/07/12 11:54:35;;;;;;;4.10;3.90;;;28.10;55.60;;;;;;5071964;28;20510;-85
2023/07/12 11:57:02;;;;;;;3.40;3.20;;;28.10;55.50;;;;;;5038345;28;20454;-86
2023/07/12 11:59:39;;;;;;;3.70;3.40;;;28.10;55.20;;;;;;5038392;28;20423;-86
2023/07/12 12:02:13;;;;;;;3.40;3.10;;;28.10;55.30;;;;;;5055229;28;20747;-86
2023/07/12 12:04:42;;;;;;;3.90;3.40;;;28.10;55.30;;;;;;5070726;28;20419;-85
2023/07/12 12:07:27;;;;;;;3.67;2.87;;;28.20;55.10;;;;;;5054405;28;20433;-87
2023/07/12 12:09:55;;;;;;;5.17;3.30;;;28.20;55.20;;;;;;5055125;28;20449;-85
2023/07/12 12:12:29;;;;;;;3.93;3.40;;;28.20;55.10;;;;;;5038214;28;20431;-86
2023/07/12 12:14:57;;;;;;;3.70;3.23;;;28.20;54.70;;;;;;5054546;28;20433;-86
2023/07/12 12:17:35;;;;;;;3.67;3.37;;;28.20;54.70;;;;;;5054554;28;20523;-86
2023/07/12 12:20:12;;;;;;;3.10;2.90;;;28.20;54.80;;;;;;5038510;28;20475;-85
2023/07/12 12:22:44;;;;;;;4.63;3.20;;;28.20;54.60;;;;;;5038139;28;20531;-85
2023/07/12 12:25:25;;;;;;;3.27;3.07;;;28.30;54.30;;;;;;5037769;28;20522;-84
2023/07/12 12:27:53;;;;;;;3.40;3.07;;;28.30;54.00;;;;;;5024759;28;20525;-86
2023/07/12 12:30:23;;;;;;;3.50;2.93;;;28.30;54.30;;;;;;5041486;28;20485;-84
2023/07/12 12:32:55;;;;;;;3.13;2.80;;;28.30;54.20;;;;;;5041160;28;20499;-85
2023/07/12 12:35:21;;;;;;;4.33;4.03;;;28.30;54.40;;;;;;5057766;28;20578;-85
2023/07/12 12:37:58;;;;;;;3.43;3.13;;;28.30;54.30;;;;;;5074200;28;20425;-88
2023/07/12 12:40:26;;;;;;;6.90;3.13;;;28.30;54.00;;;;;;5035910;28;20490;-86
2023/07/12 12:43:00;;;;;;;3.97;3.33;;;28.30;53.50;;;;;;5034151;28;20431;-86
2023/07/12 12:45:32;;;;;;;3.73;3.53;;;28.40;53.70;;;;;;5034476;28;20415;-85
2023/07/12 12:47:59;;;;;;;3.53;3.23;;;28.30;53.70;;;;;;5033729;28;20784;-85
2023/07/12 12:50:30;;;;;;;7.23;2.93;;;28.30;53.80;;;;;;5033119;28;20427;-86
2023/07/12 12:53:01;;;;;;;5.87;3.40;;;28.30;53.70;;;;;;5017260;28;20480;-86
2023/07/12 12:55:27;;;;;;;5.27;3.30;;;28.40;53.80;;;;;;5033445;28;20759;-86
2023/07/12 12:57:55;;;;;;;3.80;3.50;;;28.40;53.50;;;;;;5016930;28;20440;-86
2023/07/12 13:00:27;;;;;;;4.20;3.80;;;28.40;53.60;;;;;;5017272;28;20473;-87
2023/07/12 13:02:53;;;;;;;3.37;3.07;;;28.40;53.40;;;;;;5050183;28;20416;-86
2023/07/12 13:05:25;;;;;;;3.40;3.10;;;28.40;53.20;;;;;;5033698;28;20435;-86